• Join FlightAware (Why Join?)
  • Login
  • US Flag GB Flag 
22:07 EDT


 

Airport Tracker/Info


-or-


 

Live Flight TrackerFlight Track Log ✈ ASQ5745 ✈ 25-May-2013 ✈ KIAD - KALB

Flight Track Log - Related Links

Times and Time Zones

All times are in EDT time to prevent confusion due to time zone crossing. See the ASQ5745 flight status page for this flight to view local times or setup timezone preferences in your user account.

Time Position Orientation Groundspeed Altitude Reporting Facility
EDT Latitude Longitude Course Direction KTS MPH feet Rate Location/Type
08:28 38.9667 -77.4333 90° East 166 191 2,100  Level Potomac TRACON
08:29 39.0333 -77.4500 349° North 227 261 3,600 2,340 Climbing Potomac TRACON
08:30 39.0833 -77.4500 360° North 238 274 6,600 3,000 Climbing Potomac TRACON
08:31 38.9931 -77.1108 72° East  Level FlightAware Approximate
08:31 39.1500 -77.4000 30° Northeast 261 300 9,100  Level Potomac TRACON
08:32 39.0167 -76.9981 90° East  Level FlightAware Approximate
08:32 39.1667 -77.3000 78° East 344 396 10,100  Level Potomac TRACON
08:33 39.0332 -76.8840 72° East  Level FlightAware Approximate
08:33 39.1167 -77.1833 119° Southeast 398 458 11,400  Level Potomac TRACON
08:34 39.0500 -76.7699 90° East  Level FlightAware Approximate
08:34 39.0833 -77.0500 108° East 403 464 13,300  Level Potomac TRACON
08:36 39.0908 -76.7817 88° East 414 476 16,700 1,560 Climbing Washington Center
08:37 39.1047 -76.6428 83° East 402 463 18,200 1,500 Climbing Washington Center
08:38 39.1206 -76.4986 82° East 402 463 19,700 1,380 Climbing Washington Center
08:39 39.1339 -76.3517 83° East 407 468 21,000 1,080 Climbing Washington Center
08:40 39.1514 -76.1992 82° East 413 475 21,900 840 Climbing Washington Center
08:41 39.1750 -76.0467 79° East 418 481 22,700 840 Climbing Washington Center
08:42 39.1944 -75.8889 81° East 436 502 23,600 960 Climbing Washington Center
08:43 39.2675 -75.7819 49° Northeast 396 456 24,700 660 Climbing Washington Center
08:44 39.3447 -75.6800 46° Northeast 396 456 25,000 120 Climbing Washington Center
08:45 39.4239 -75.5836 43° Northeast 386 444 25,000  Level Washington Center
08:46 39.4969 -75.4867 46° Northeast 381 438 25,000  Level Washington Center
08:48 39.6542 -75.2819 45° Northeast 367 422 25,000  Level New York Center
08:49 39.7222 -75.1864 47° Northeast 367 422 25,000  Level New York Center
08:50 39.7953 -75.0775 49° Northeast 362 417 25,000  Level New York Center
08:51 39.8656 -74.9792 47° Northeast 362 417 25,000  Level New York Center
08:52 39.9356 -74.8806 47° Northeast 362 417 25,000  Level New York Center
08:53 40.0100 -74.7792 46° Northeast 362 417 25,000 -60 Level New York Center
08:54 40.0819 -74.6831 46° Northeast 362 417 24,900  Descending New York Center
08:55 40.1478 -74.5833 49° Northeast 362 417 25,000  Climbing New York Center
08:56 40.2178 -74.4839 47° Northeast 362 417 25,000  Level New York Center
08:57 40.2956 -74.3956 41° Northeast 362 417 25,000 -60 Level New York Center
08:58 40.3753 -74.3100 39° Northeast 362 417 24,900 -360 Descending New York Center
08:59 40.4569 -74.2242 39° Northeast 368 423 24,300 -540 Descending New York Center
09:00 40.5367 -74.1353 40° Northeast 368 423 23,900 -120 Descending New York Center
09:03 40.7189 -73.9461 38° Northeast 376 433 24,000  Climbing Boston Center
09:04 40.7992 -73.8575 40° Northeast 376 433 24,000  Level Boston Center
09:05 40.8733 -73.7603 45° Northeast 376 433 24,000 -60 Level Boston Center
09:06 40.9536 -73.6658 42° Northeast 376 433 23,900 -540 Descending Boston Center
09:07 41.0558 -73.6511 North 356 410 23,000 -600 Descending Boston Center
09:08 41.1581 -73.6394 North 356 410 22,800 -840 Descending Boston Center
09:09 41.2647 -73.6275 North 369 425 21,400 -1,380 Descending Boston Center
09:10 41.3628 -73.6156 North 369 425 20,100 -1,200 Descending Boston Center
09:11 41.4608 -73.6036 North 363 418 19,000 -600 Descending Boston Center
09:12 41.5461 -73.5967 North 347 399 19,000  Level Boston Center
09:13 41.6528 -73.5792 North 353 406 19,000 -540 Level Boston Center
09:14 41.7467 -73.5725 North 359 413 18,000 -1,620 Descending Boston Center
09:15 41.8550 -73.5578 North 365 420 15,800 -2,220 Descending Boston Center
09:15 41.9094 -73.5503 North 358 412 14,700 -1,920 Descending Boston Center
09:16 41.9428 -73.5481 North 360 414 13,900 -1,800 Descending Boston Center
09:16 41.9886 -73.5406 North 342 394 13,100 -1,800 Descending Boston Center
09:17 42.0469 -73.5333 North 343 395 12,100 -1,920 Descending Boston Center
09:17 42.0908 -73.5311 North 334 384 11,200 -1,140 Descending Boston Center
09:18 42.1344 -73.5431 349° North 327 376 11,000 -240 Descending Boston Center
09:18 42.1697 -73.5633 337° Northwest 290 334 11,000  Level Boston Center
09:19 42.2092 -73.5892 334° Northwest 301 346 11,000 -840 Level Boston Center
09:19 42.2403 -73.6067 337° Northwest 276 318 10,200 -1,800 Descending Boston Center
09:20 42.2794 -73.6328 334° Northwest 289 333 9,200 -1,980 Descending Boston Center
09:20 42.3106 -73.6531 334° Northwest 276 318 8,200 -2,040 Descending Boston Center
09:21 42.3375 -73.6675 338° Northwest 268 308 7,200 -2,220 Descending Boston Center
09:21 42.3747 -73.6878 338° Northwest 247 284 6,000 -2,100 Descending Boston Center
09:22 42.4286 -73.7228 334° Northwest 207 238 4,100 -1,020 Descending Boston Center
09:23 42.4719 -73.7489 336° Northwest 171 197 4,000 -600 Descending Boston Center
09:24 42.5156 -73.7753 336° Northwest 172 198 2,900 -720 Descending Boston Center
09:25 42.5611 -73.7986 339° North 158 182 2,600 -180 Descending Boston Center
09:26 42.6028 -73.8025 356° North 145 167 2,600  Level Boston Center